Terminal Aerodrome Forecast
Issued by NWS Paducah, KY

Home | Current Version | Previous Version | Text Only | Print | Product List | Glossary Off
Versions: 1 2 3 4 5 6 7 8 9 10 11 12 13 14 15

000
FTUS43 KPAH 310520
TAFPAH
TAF
KPAH 310520Z 3106/0106 01002KT P6SM SKC
     FM311700 36006KT P6SM SKC
     FM010000 03001KT P6SM SKC=

USA.gov is the U.S. government's official web portal to all federal, state and local government web resources and services.